sensor_id;sensor_type;location;lat;lon;timestamp;P1;durP1;ratioP1;P2;durP2;ratioP2
11964;SDS011;6042;41.326;19.826;2023-08-08T00:00:48;8.47;;;2.60;;
11964;SDS011;6042;41.326;19.826;2023-08-08T00:03:18;6.40;;;2.63;;
11964;SDS011;6042;41.326;19.826;2023-08-08T00:05:46;8.67;;;2.83;;
11964;SDS011;6042;41.326;19.826;2023-08-08T00:08:15;6.40;;;2.00;;
11964;SDS011;6042;41.326;19.826;2023-08-08T00:10:44;8.77;;;2.43;;
11964;SDS011;6042;41.326;19.826;2023-08-08T00:13:12;7.97;;;2.53;;
11964;SDS011;6042;41.326;19.826;2023-08-08T00:15:41;7.87;;;2.60;;
11964;SDS011;6042;41.326;19.826;2023-08-08T00:18:12;8.13;;;2.70;;
11964;SDS011;6042;41.326;19.826;2023-08-08T00:20:41;5.93;;;2.27;;
11964;SDS011;6042;41.326;19.826;2023-08-08T00:23:09;6.97;;;2.70;;
11964;SDS011;6042;41.326;19.826;2023-08-08T00:25:38;6.37;;;2.27;;
11964;SDS011;6042;41.326;19.826;2023-08-08T00:28:06;7.77;;;2.37;;
11964;SDS011;6042;41.326;19.826;2023-08-08T00:30:35;12.03;;;2.87;;
11964;SDS011;6042;41.326;19.826;2023-08-08T00:33:03;5.07;;;2.20;;
11964;SDS011;6042;41.326;19.826;2023-08-08T00:35:33;5.43;;;2.50;;
11964;SDS011;6042;41.326;19.826;2023-08-08T00:38:02;4.77;;;2.10;;
11964;SDS011;6042;41.326;19.826;2023-08-08T00:40:33;6.73;;;2.40;;
11964;SDS011;6042;41.326;19.826;2023-08-08T00:43:01;7.40;;;2.30;;
11964;SDS011;6042;41.326;19.826;2023-08-08T00:45:30;4.83;;;2.60;;
11964;SDS011;6042;41.326;19.826;2023-08-08T00:47:58;7.03;;;2.53;;
11964;SDS011;6042;41.326;19.826;2023-08-08T00:50:26;4.70;;;2.30;;
11964;SDS011;6042;41.326;19.826;2023-08-08T00:52:56;5.37;;;2.30;;
11964;SDS011;6042;41.326;19.826;2023-08-08T00:55:25;3.70;;;2.20;;
11964;SDS011;6042;41.326;19.826;2023-08-08T00:57:54;9.53;;;2.37;;
11964;SDS011;6042;41.326;19.826;2023-08-08T01:00:22;4.70;;;2.30;;
11964;SDS011;6042;41.326;19.826;2023-08-08T01:02:51;6.43;;;2.57;;
11964;SDS011;6042;41.326;19.826;2023-08-08T01:05:21;5.87;;;2.33;;
11964;SDS011;6042;41.326;19.826;2023-08-08T01:07:52;6.23;;;2.50;;
11964;SDS011;6042;41.326;19.826;2023-08-08T01:10:25;6.13;;;2.60;;
11964;SDS011;6042;41.326;19.826;2023-08-08T01:12:57;6.20;;;2.43;;
11964;SDS011;6042;41.326;19.826;2023-08-08T01:15:31;5.87;;;2.60;;
11964;SDS011;6042;41.326;19.826;2023-08-08T01:18:03;6.43;;;2.47;;
11964;SDS011;6042;41.326;19.826;2023-08-08T01:20:32;7.77;;;2.83;;
11964;SDS011;6042;41.326;19.826;2023-08-08T01:23:04;7.27;;;2.40;;
11964;SDS011;6042;41.326;19.826;2023-08-08T01:25:40;12.07;;;3.10;;
11964;SDS011;6042;41.326;19.826;2023-08-08T01:28:09;5.63;;;2.53;;
11964;SDS011;6042;41.326;19.826;2023-08-08T01:30:37;7.00;;;2.73;;
11964;SDS011;6042;41.326;19.826;2023-08-08T01:33:07;9.80;;;3.10;;
11964;SDS011;6042;41.326;19.826;2023-08-08T01:35:37;7.53;;;2.53;;
11964;SDS011;6042;41.326;19.826;2023-08-08T01:38:09;7.47;;;2.57;;
11964;SDS011;6042;41.326;19.826;2023-08-08T01:40:43;7.57;;;2.53;;
11964;SDS011;6042;41.326;19.826;2023-08-08T01:43:14;6.63;;;2.30;;
11964;SDS011;6042;41.326;19.826;2023-08-08T01:45:45;5.03;;;2.17;;
11964;SDS011;6042;41.326;19.826;2023-08-08T01:48:13;8.63;;;2.30;;
11964;SDS011;6042;41.326;19.826;2023-08-08T01:50:42;5.40;;;2.53;;
11964;SDS011;6042;41.326;19.826;2023-08-08T01:53:10;4.00;;;2.20;;
11964;SDS011;6042;41.326;19.826;2023-08-08T01:55:39;6.53;;;2.57;;
11964;SDS011;6042;41.326;19.826;2023-08-08T01:58:09;5.87;;;2.37;;
11964;SDS011;6042;41.326;19.826;2023-08-08T02:00:37;5.80;;;2.40;;
11964;SDS011;6042;41.326;19.826;2023-08-08T02:03:07;5.17;;;2.20;;
11964;SDS011;6042;41.326;19.826;2023-08-08T02:05:36;7.73;;;2.87;;
11964;SDS011;6042;41.326;19.826;2023-08-08T02:08:05;6.47;;;2.13;;
11964;SDS011;6042;41.326;19.826;2023-08-08T02:10:34;6.20;;;2.13;;
11964;SDS011;6042;41.326;19.826;2023-08-08T02:13:02;7.27;;;2.43;;
11964;SDS011;6042;41.326;19.826;2023-08-08T02:15:33;5.03;;;2.27;;
11964;SDS011;6042;41.326;19.826;2023-08-08T02:18:01;6.00;;;2.60;;
11964;SDS011;6042;41.326;19.826;2023-08-08T02:20:30;5.17;;;2.20;;
11964;SDS011;6042;41.326;19.826;2023-08-08T02:22:59;9.33;;;2.40;;
11964;SDS011;6042;41.326;19.826;2023-08-08T02:25:27;7.20;;;2.57;;
11964;SDS011;6042;41.326;19.826;2023-08-08T02:27:57;7.17;;;2.50;;
11964;SDS011;6042;41.326;19.826;2023-08-08T02:30:25;6.93;;;2.30;;
11964;SDS011;6042;41.326;19.826;2023-08-08T02:32:55;8.53;;;2.40;;
11964;SDS011;6042;41.326;19.826;2023-08-08T02:35:25;7.60;;;2.37;;
11964;SDS011;6042;41.326;19.826;2023-08-08T02:37:53;7.93;;;2.63;;
11964;SDS011;6042;41.326;19.826;2023-08-08T02:40:22;7.20;;;2.80;;
11964;SDS011;6042;41.326;19.826;2023-08-08T02:42:51;6.43;;;2.20;;
11964;SDS011;6042;41.326;19.826;2023-08-08T02:45:19;5.47;;;2.30;;
11964;SDS011;6042;41.326;19.826;2023-08-08T02:47:48;5.63;;;2.40;;
11964;SDS011;6042;41.326;19.826;2023-08-08T02:50:18;5.07;;;2.50;;
11964;SDS011;6042;41.326;19.826;2023-08-08T02:52:46;7.23;;;2.40;;
11964;SDS011;6042;41.326;19.826;2023-08-08T02:55:16;5.27;;;2.53;;
11964;SDS011;6042;41.326;19.826;2023-08-08T02:57:47;6.43;;;2.20;;
11964;SDS011;6042;41.326;19.826;2023-08-08T03:00:16;4.87;;;2.17;;
11964;SDS011;6042;41.326;19.826;2023-08-08T03:02:48;7.10;;;2.70;;
11964;SDS011;6042;41.326;19.826;2023-08-08T03:05:18;7.87;;;2.67;;
11964;SDS011;6042;41.326;19.826;2023-08-08T03:07:48;6.27;;;2.60;;
11964;SDS011;6042;41.326;19.826;2023-08-08T03:10:17;5.40;;;2.33;;
11964;SDS011;6042;41.326;19.826;2023-08-08T03:12:45;6.27;;;2.17;;
11964;SDS011;6042;41.326;19.826;2023-08-08T03:15:14;5.20;;;2.30;;
11964;SDS011;6042;41.326;19.826;2023-08-08T03:17:43;8.97;;;2.63;;
11964;SDS011;6042;41.326;19.826;2023-08-08T03:20:12;5.20;;;2.40;;
11964;SDS011;6042;41.326;19.826;2023-08-08T03:22:43;5.73;;;2.37;;
11964;SDS011;6042;41.326;19.826;2023-08-08T03:25:11;6.17;;;2.20;;
11964;SDS011;6042;41.326;19.826;2023-08-08T03:27:41;5.10;;;2.50;;
11964;SDS011;6042;41.326;19.826;2023-08-08T03:30:13;7.07;;;2.47;;
11964;SDS011;6042;41.326;19.826;2023-08-08T03:32:43;5.10;;;2.70;;
11964;SDS011;6042;41.326;19.826;2023-08-08T03:35:11;5.50;;;2.30;;
11964;SDS011;6042;41.326;19.826;2023-08-08T03:37:44;5.60;;;2.20;;
11964;SDS011;6042;41.326;19.826;2023-08-08T03:40:13;8.27;;;2.80;;
11964;SDS011;6042;41.326;19.826;2023-08-08T03:42:43;6.53;;;2.73;;
11964;SDS011;6042;41.326;19.826;2023-08-08T03:45:11;4.60;;;2.70;;
11964;SDS011;6042;41.326;19.826;2023-08-08T03:47:40;7.40;;;3.20;;
11964;SDS011;6042;41.326;19.826;2023-08-08T03:50:09;7.70;;;2.97;;
11964;SDS011;6042;41.326;19.826;2023-08-08T03:52:38;6.40;;;2.37;;
11964;SDS011;6042;41.326;19.826;2023-08-08T03:55:12;9.20;;;2.80;;
11964;SDS011;6042;41.326;19.826;2023-08-08T03:57:40;6.90;;;2.70;;
11964;SDS011;6042;41.326;19.826;2023-08-08T04:00:09;6.60;;;2.77;;
11964;SDS011;6042;41.326;19.826;2023-08-08T04:02:40;11.63;;;2.93;;
11964;SDS011;6042;41.326;19.826;2023-08-08T04:05:09;5.27;;;2.47;;
11964;SDS011;6042;41.326;19.826;2023-08-08T04:07:38;4.17;;;2.50;;
11964;SDS011;6042;41.326;19.826;2023-08-08T04:10:06;7.27;;;2.37;;
11964;SDS011;6042;41.326;19.826;2023-08-08T04:12:37;5.47;;;2.77;;
11964;SDS011;6042;41.326;19.826;2023-08-08T04:15:05;5.07;;;2.47;;
11964;SDS011;6042;41.326;19.826;2023-08-08T04:17:35;7.80;;;2.77;;
11964;SDS011;6042;41.326;19.826;2023-08-08T04:20:04;7.83;;;3.47;;
11964;SDS011;6042;41.326;19.826;2023-08-08T04:22:34;5.40;;;2.70;;
11964;SDS011;6042;41.326;19.826;2023-08-08T04:25:05;7.27;;;2.83;;
11964;SDS011;6042;41.326;19.826;2023-08-08T04:27:35;5.70;;;2.90;;
11964;SDS011;6042;41.326;19.826;2023-08-08T04:30:05;9.17;;;3.13;;
11964;SDS011;6042;41.326;19.826;2023-08-08T04:32:34;6.63;;;3.10;;
11964;SDS011;6042;41.326;19.826;2023-08-08T04:35:03;8.43;;;3.60;;
11964;SDS011;6042;41.326;19.826;2023-08-08T04:37:32;9.23;;;3.50;;
11964;SDS011;6042;41.326;19.826;2023-08-08T04:40:00;7.40;;;3.50;;
11964;SDS011;6042;41.326;19.826;2023-08-08T04:42:30;7.93;;;3.40;;
11964;SDS011;6042;41.326;19.826;2023-08-08T04:45:01;6.73;;;2.87;;
11964;SDS011;6042;41.326;19.826;2023-08-08T04:47:29;6.87;;;2.93;;
11964;SDS011;6042;41.326;19.826;2023-08-08T04:49:57;12.97;;;3.50;;
11964;SDS011;6042;41.326;19.826;2023-08-08T04:52:26;7.83;;;2.83;;
11964;SDS011;6042;41.326;19.826;2023-08-08T04:54:54;3.47;;;2.30;;
11964;SDS011;6042;41.326;19.826;2023-08-08T04:57:24;13.63;;;3.00;;
11964;SDS011;6042;41.326;19.826;2023-08-08T04:59:52;6.53;;;2.93;;
11964;SDS011;6042;41.326;19.826;2023-08-08T05:02:22;8.50;;;3.17;;
11964;SDS011;6042;41.326;19.826;2023-08-08T05:04:50;5.03;;;2.40;;
11964;SDS011;6042;41.326;19.826;2023-08-08T05:07:19;7.30;;;2.70;;
11964;SDS011;6042;41.326;19.826;2023-08-08T05:09:48;11.57;;;2.83;;
11964;SDS011;6042;41.326;19.826;2023-08-08T05:12:16;9.37;;;3.13;;
11964;SDS011;6042;41.326;19.826;2023-08-08T05:14:45;14.67;;;3.30;;
11964;SDS011;6042;41.326;19.826;2023-08-08T05:17:13;7.40;;;2.47;;
11964;SDS011;6042;41.326;19.826;2023-08-08T05:19:43;18.17;;;3.93;;
11964;SDS011;6042;41.326;19.826;2023-08-08T05:22:11;12.57;;;3.33;;
11964;SDS011;6042;41.326;19.826;2023-08-08T05:24:40;9.27;;;2.80;;
11964;SDS011;6042;41.326;19.826;2023-08-08T05:27:08;12.73;;;3.37;;
11964;SDS011;6042;41.326;19.826;2023-08-08T05:29:38;12.93;;;2.83;;
11964;SDS011;6042;41.326;19.826;2023-08-08T05:32:07;6.33;;;3.00;;
11964;SDS011;6042;41.326;19.826;2023-08-08T05:34:36;12.97;;;3.13;;
11964;SDS011;6042;41.326;19.826;2023-08-08T05:37:06;5.10;;;2.60;;
11964;SDS011;6042;41.326;19.826;2023-08-08T05:39:43;7.17;;;2.53;;
11964;SDS011;6042;41.326;19.826;2023-08-08T05:42:11;12.13;;;2.73;;
11964;SDS011;6042;41.326;19.826;2023-08-08T05:44:40;5.73;;;2.43;;
11964;SDS011;6042;41.326;19.826;2023-08-08T05:47:09;9.40;;;3.37;;
11964;SDS011;6042;41.326;19.826;2023-08-08T05:49:38;7.23;;;3.00;;
11964;SDS011;6042;41.326;19.826;2023-08-08T05:52:09;6.90;;;3.03;;
11964;SDS011;6042;41.326;19.826;2023-08-08T05:54:38;6.27;;;2.70;;
11964;SDS011;6042;41.326;19.826;2023-08-08T05:57:06;7.97;;;2.73;;
11964;SDS011;6042;41.326;19.826;2023-08-08T05:59:34;8.13;;;2.70;;
11964;SDS011;6042;41.326;19.826;2023-08-08T06:02:05;6.13;;;2.67;;
11964;SDS011;6042;41.326;19.826;2023-08-08T06:04:34;10.17;;;2.87;;
11964;SDS011;6042;41.326;19.826;2023-08-08T06:07:02;5.83;;;2.93;;
11964;SDS011;6042;41.326;19.826;2023-08-08T06:09:35;10.73;;;2.67;;
11964;SDS011;6042;41.326;19.826;2023-08-08T06:12:04;11.90;;;3.20;;
11964;SDS011;6042;41.326;19.826;2023-08-08T06:14:33;8.37;;;2.57;;
11964;SDS011;6042;41.326;19.826;2023-08-08T06:17:02;7.07;;;2.93;;
11964;SDS011;6042;41.326;19.826;2023-08-08T06:19:32;7.20;;;2.67;;
11964;SDS011;6042;41.326;19.826;2023-08-08T06:22:00;16.20;;;3.83;;
11964;SDS011;6042;41.326;19.826;2023-08-08T06:24:30;41.70;;;6.93;;
11964;SDS011;6042;41.326;19.826;2023-08-08T06:26:59;8.23;;;3.03;;
11964;SDS011;6042;41.326;19.826;2023-08-08T06:29:29;7.27;;;2.93;;
11964;SDS011;6042;41.326;19.826;2023-08-08T06:31:57;11.50;;;4.00;;
11964;SDS011;6042;41.326;19.826;2023-08-08T06:34:26;10.17;;;3.50;;
11964;SDS011;6042;41.326;19.826;2023-08-08T06:36:55;14.00;;;4.43;;
11964;SDS011;6042;41.326;19.826;2023-08-08T06:39:23;12.40;;;4.37;;
11964;SDS011;6042;41.326;19.826;2023-08-08T06:41:52;9.67;;;3.93;;
11964;SDS011;6042;41.326;19.826;2023-08-08T06:44:33;17.73;;;4.80;;
11964;SDS011;6042;41.326;19.826;2023-08-08T06:47:08;13.17;;;4.87;;
11964;SDS011;6042;41.326;19.826;2023-08-08T06:49:37;10.77;;;4.50;;
11964;SDS011;6042;41.326;19.826;2023-08-08T06:52:06;10.87;;;4.60;;
11964;SDS011;6042;41.326;19.826;2023-08-08T06:54:37;12.50;;;5.17;;
11964;SDS011;6042;41.326;19.826;2023-08-08T06:57:05;11.87;;;5.10;;
11964;SDS011;6042;41.326;19.826;2023-08-08T06:59:35;10.23;;;4.50;;
11964;SDS011;6042;41.326;19.826;2023-08-08T07:02:04;17.43;;;5.53;;
11964;SDS011;6042;41.326;19.826;2023-08-08T07:04:33;10.77;;;4.30;;
11964;SDS011;6042;41.326;19.826;2023-08-08T07:07:02;7.80;;;4.27;;
11964;SDS011;6042;41.326;19.826;2023-08-08T07:09:33;13.20;;;4.83;;
11964;SDS011;6042;41.326;19.826;2023-08-08T07:12:05;8.70;;;4.57;;
11964;SDS011;6042;41.326;19.826;2023-08-08T07:14:39;10.77;;;4.27;;
11964;SDS011;6042;41.326;19.826;2023-08-08T07:17:07;11.33;;;4.50;;
11964;SDS011;6042;41.326;19.826;2023-08-08T07:19:36;9.40;;;3.90;;
11964;SDS011;6042;41.326;19.826;2023-08-08T07:22:05;10.50;;;4.00;;
11964;SDS011;6042;41.326;19.826;2023-08-08T07:24:33;8.73;;;4.00;;
11964;SDS011;6042;41.326;19.826;2023-08-08T07:27:03;10.57;;;4.23;;
11964;SDS011;6042;41.326;19.826;2023-08-08T07:29:31;10.73;;;3.90;;
11964;SDS011;6042;41.326;19.826;2023-08-08T07:32:01;13.97;;;5.77;;
11964;SDS011;6042;41.326;19.826;2023-08-08T07:34:31;9.63;;;3.90;;
11964;SDS011;6042;41.326;19.826;2023-08-08T07:37:02;17.63;;;3.70;;
11964;SDS011;6042;41.326;19.826;2023-08-08T07:39:32;7.37;;;3.60;;
11964;SDS011;6042;41.326;19.826;2023-08-08T07:42:00;7.70;;;3.43;;
11964;SDS011;6042;41.326;19.826;2023-08-08T07:44:29;7.83;;;3.47;;
11964;SDS011;6042;41.326;19.826;2023-08-08T07:46:58;9.07;;;3.27;;
11964;SDS011;6042;41.326;19.826;2023-08-08T07:49:28;6.47;;;3.40;;
11964;SDS011;6042;41.326;19.826;2023-08-08T07:51:56;8.63;;;3.37;;
11964;SDS011;6042;41.326;19.826;2023-08-08T07:54:25;8.33;;;3.60;;
11964;SDS011;6042;41.326;19.826;2023-08-08T07:56:54;9.47;;;3.87;;
11964;SDS011;6042;41.326;19.826;2023-08-08T07:59:23;14.07;;;5.10;;
11964;SDS011;6042;41.326;19.826;2023-08-08T08:01:53;11.40;;;3.93;;
11964;SDS011;6042;41.326;19.826;2023-08-08T08:04:21;9.00;;;3.73;;
11964;SDS011;6042;41.326;19.826;2023-08-08T08:06:51;10.67;;;3.80;;
11964;SDS011;6042;41.326;19.826;2023-08-08T08:09:20;8.60;;;3.70;;
11964;SDS011;6042;41.326;19.826;2023-08-08T08:11:48;14.73;;;4.17;;
11964;SDS011;6042;41.326;19.826;2023-08-08T08:14:18;11.97;;;4.33;;
11964;SDS011;6042;41.326;19.826;2023-08-08T08:16:47;7.33;;;4.53;;
11964;SDS011;6042;41.326;19.826;2023-08-08T08:19:17;9.33;;;3.83;;
11964;SDS011;6042;41.326;19.826;2023-08-08T08:21:46;7.80;;;3.73;;
11964;SDS011;6042;41.326;19.826;2023-08-08T08:24:16;7.80;;;3.57;;
11964;SDS011;6042;41.326;19.826;2023-08-08T08:26:45;6.07;;;3.37;;
11964;SDS011;6042;41.326;19.826;2023-08-08T08:29:13;7.40;;;3.70;;
11964;SDS011;6042;41.326;19.826;2023-08-08T08:31:42;9.43;;;3.43;;
11964;SDS011;6042;41.326;19.826;2023-08-08T08:34:10;10.13;;;3.50;;
11964;SDS011;6042;41.326;19.826;2023-08-08T08:36:39;7.00;;;3.70;;
11964;SDS011;6042;41.326;19.826;2023-08-08T08:39:07;6.30;;;3.50;;
11964;SDS011;6042;41.326;19.826;2023-08-08T08:41:37;4.20;;;2.90;;
11964;SDS011;6042;41.326;19.826;2023-08-08T08:44:05;5.33;;;2.93;;
11964;SDS011;6042;41.326;19.826;2023-08-08T08:46:34;6.03;;;2.63;;
11964;SDS011;6042;41.326;19.826;2023-08-08T08:49:05;5.33;;;3.43;;
11964;SDS011;6042;41.326;19.826;2023-08-08T08:51:36;14.30;;;3.40;;
11964;SDS011;6042;41.326;19.826;2023-08-08T08:54:07;5.97;;;2.83;;
11964;SDS011;6042;41.326;19.826;2023-08-08T08:56:37;7.10;;;3.00;;
11964;SDS011;6042;41.326;19.826;2023-08-08T08:59:05;7.27;;;2.87;;
11964;SDS011;6042;41.326;19.826;2023-08-08T09:01:34;5.30;;;2.67;;
11964;SDS011;6042;41.326;19.826;2023-08-08T09:04:04;6.23;;;2.83;;
11964;SDS011;6042;41.326;19.826;2023-08-08T09:06:34;4.97;;;2.70;;
11964;SDS011;6042;41.326;19.826;2023-08-08T09:09:06;3.60;;;2.20;;
11964;SDS011;6042;41.326;19.826;2023-08-08T09:11:44;7.20;;;3.13;;
11964;SDS011;6042;41.326;19.826;2023-08-08T09:14:16;4.53;;;2.70;;
11964;SDS011;6042;41.326;19.826;2023-08-08T09:16:45;5.37;;;2.90;;
11964;SDS011;6042;41.326;19.826;2023-08-08T09:19:14;7.83;;;2.80;;
11964;SDS011;6042;41.326;19.826;2023-08-08T09:21:44;10.87;;;3.50;;
11964;SDS011;6042;41.326;19.826;2023-08-08T09:24:13;7.10;;;3.10;;
11964;SDS011;6042;41.326;19.826;2023-08-08T09:26:44;10.20;;;2.70;;
11964;SDS011;6042;41.326;19.826;2023-08-08T09:29:13;4.80;;;2.63;;
11964;SDS011;6042;41.326;19.826;2023-08-08T09:31:42;6.87;;;2.90;;
11964;SDS011;6042;41.326;19.826;2023-08-08T09:34:13;9.30;;;3.07;;
11964;SDS011;6042;41.326;19.826;2023-08-08T09:36:42;4.87;;;2.70;;
11964;SDS011;6042;41.326;19.826;2023-08-08T09:39:13;6.40;;;3.03;;
11964;SDS011;6042;41.326;19.826;2023-08-08T09:41:41;7.43;;;3.13;;
11964;SDS011;6042;41.326;19.826;2023-08-08T09:44:11;3.43;;;2.37;;
11964;SDS011;6042;41.326;19.826;2023-08-08T09:46:39;4.03;;;2.60;;
11964;SDS011;6042;41.326;19.826;2023-08-08T09:49:08;9.60;;;4.20;;
11964;SDS011;6042;41.326;19.826;2023-08-08T09:51:38;4.43;;;2.70;;
11964;SDS011;6042;41.326;19.826;2023-08-08T09:54:09;6.63;;;2.50;;
11964;SDS011;6042;41.326;19.826;2023-08-08T09:56:39;5.57;;;2.57;;
11964;SDS011;6042;41.326;19.826;2023-08-08T09:59:08;9.10;;;2.90;;
11964;SDS011;6042;41.326;19.826;2023-08-08T10:01:39;7.47;;;2.87;;
11964;SDS011;6042;41.326;19.826;2023-08-08T10:04:09;4.73;;;2.60;;
11964;SDS011;6042;41.326;19.826;2023-08-08T10:06:39;3.97;;;2.60;;
11964;SDS011;6042;41.326;19.826;2023-08-08T10:09:08;2.77;;;2.30;;
11964;SDS011;6042;41.326;19.826;2023-08-08T10:11:36;5.53;;;2.00;;
11964;SDS011;6042;41.326;19.826;2023-08-08T10:14:05;3.00;;;2.17;;
11964;SDS011;6042;41.326;19.826;2023-08-08T10:16:37;2.90;;;2.00;;
11964;SDS011;6042;41.326;19.826;2023-08-08T10:19:06;4.27;;;2.10;;
11964;SDS011;6042;41.326;19.826;2023-08-08T10:21:35;4.30;;;2.40;;
11964;SDS011;6042;41.326;19.826;2023-08-08T10:24:06;5.88;;;2.55;;
11964;SDS011;6042;41.326;19.826;2023-08-08T10:26:50;10.20;;;2.80;;
11964;SDS011;6042;41.326;19.826;2023-08-08T10:29:23;5.63;;;2.53;;
11964;SDS011;6042;41.326;19.826;2023-08-08T10:31:58;6.90;;;2.90;;
11964;SDS011;6042;41.326;19.826;2023-08-08T10:34:36;3.47;;;2.37;;
11964;SDS011;6042;41.326;19.826;2023-08-08T10:37:06;4.87;;;2.00;;
11964;SDS011;6042;41.326;19.826;2023-08-08T10:39:48;3.83;;;1.97;;
11964;SDS011;6042;41.326;19.826;2023-08-08T10:42:18;2.80;;;1.83;;
11964;SDS011;6042;41.326;19.826;2023-08-08T10:44:51;1.83;;;1.50;;
11964;SDS011;6042;41.326;19.826;2023-08-08T10:47:30;4.33;;;2.07;;
11964;SDS011;6042;41.326;19.826;2023-08-08T10:50:03;4.07;;;2.07;;
11964;SDS011;6042;41.326;19.826;2023-08-08T10:52:37;4.47;;;2.50;;
11964;SDS011;6042;41.326;19.826;2023-08-08T10:55:06;7.33;;;2.53;;
11964;SDS011;6042;41.326;19.826;2023-08-08T10:57:52;4.33;;;2.00;;
11964;SDS011;6042;41.326;19.826;2023-08-08T11:00:23;3.87;;;1.73;;
11964;SDS011;6042;41.326;19.826;2023-08-08T11:02:56;3.03;;;1.83;;
11964;SDS011;6042;41.326;19.826;2023-08-08T11:05:28;4.17;;;1.90;;
11964;SDS011;6042;41.326;19.826;2023-08-08T11:07:58;3.33;;;1.67;;
11964;SDS011;6042;41.326;19.826;2023-08-08T11:10:27;3.73;;;2.00;;
11964;SDS011;6042;41.326;19.826;2023-08-08T11:12:58;3.60;;;2.20;;
11964;SDS011;6042;41.326;19.826;2023-08-08T11:15:31;7.13;;;6.43;;
11964;SDS011;6042;41.326;19.826;2023-08-08T11:18:02;7.47;;;3.63;;
11964;SDS011;6042;41.326;19.826;2023-08-08T11:20:31;4.13;;;1.70;;
11964;SDS011;6042;41.326;19.826;2023-08-08T11:23:01;1.90;;;1.80;;
11964;SDS011;6042;41.326;19.826;2023-08-08T11:25:30;4.03;;;1.83;;
11964;SDS011;6042;41.326;19.826;2023-08-08T11:27:59;4.18;;;1.90;;
11964;SDS011;6042;41.326;19.826;2023-08-08T11:30:28;4.15;;;1.83;;
11964;SDS011;6042;41.326;19.826;2023-08-08T11:32:58;4.78;;;1.70;;
11964;SDS011;6042;41.326;19.826;2023-08-08T11:35:32;6.30;;;2.30;;
11964;SDS011;6042;41.326;19.826;2023-08-08T11:38:02;5.68;;;2.05;;
11964;SDS011;6042;41.326;19.826;2023-08-08T11:40:32;4.18;;;1.70;;
11964;SDS011;6042;41.326;19.826;2023-08-08T11:43:01;4.55;;;2.42;;
11964;SDS011;6042;41.326;19.826;2023-08-08T11:45:31;10.02;;;2.97;;
11964;SDS011;6042;41.326;19.826;2023-08-08T11:47:59;4.18;;;1.90;;
11964;SDS011;6042;41.326;19.826;2023-08-08T11:50:29;14.07;;;2.30;;
11964;SDS011;6042;41.326;19.826;2023-08-08T11:52:59;3.20;;;1.40;;
11964;SDS011;6042;41.326;19.826;2023-08-08T11:55:29;2.75;;;1.35;;
11964;SDS011;6042;41.326;19.826;2023-08-08T11:57:58;4.07;;;1.85;;
11964;SDS011;6042;41.326;19.826;2023-08-08T12:00:27;2.10;;;1.45;;
11964;SDS011;6042;41.326;19.826;2023-08-08T12:02:58;2.67;;;1.80;;
11964;SDS011;6042;41.326;19.826;2023-08-08T12:05:28;2.72;;;1.60;;
11964;SDS011;6042;41.326;19.826;2023-08-08T12:07:59;3.58;;;1.63;;
11964;SDS011;6042;41.326;19.826;2023-08-08T12:10:28;4.88;;;1.80;;
11964;SDS011;6042;41.326;19.826;2023-08-08T12:12:56;1.83;;;1.60;;
11964;SDS011;6042;41.326;19.826;2023-08-08T12:15:29;21.05;;;3.85;;
11964;SDS011;6042;41.326;19.826;2023-08-08T12:18:00;4.95;;;2.40;;
11964;SDS011;6042;41.326;19.826;2023-08-08T12:20:29;9.18;;;2.55;;
11964;SDS011;6042;41.326;19.826;2023-08-08T12:23:00;39.00;;;5.82;;
11964;SDS011;6042;41.326;19.826;2023-08-08T12:25:28;2.08;;;1.70;;
11964;SDS011;6042;41.326;19.826;2023-08-08T12:27:57;4.97;;;2.38;;
11964;SDS011;6042;41.326;19.826;2023-08-08T12:30:25;7.97;;;2.83;;
11964;SDS011;6042;41.326;19.826;2023-08-08T12:32:54;3.80;;;1.50;;
11964;SDS011;6042;41.326;19.826;2023-08-08T12:35:22;2.63;;;1.70;;
11964;SDS011;6042;41.326;19.826;2023-08-08T12:37:53;3.58;;;1.90;;
11964;SDS011;6042;41.326;19.826;2023-08-08T12:40:23;2.58;;;1.70;;
11964;SDS011;6042;41.326;19.826;2023-08-08T12:42:52;3.30;;;1.48;;
11964;SDS011;6042;41.326;19.826;2023-08-08T12:45:21;4.88;;;1.75;;
11964;SDS011;6042;41.326;19.826;2023-08-08T12:47:50;5.57;;;1.77;;
11964;SDS011;6042;41.326;19.826;2023-08-08T12:50:19;17.65;;;3.15;;
11964;SDS011;6042;41.326;19.826;2023-08-08T12:52:47;2.20;;;2.03;;
11964;SDS011;6042;41.326;19.826;2023-08-08T12:55:16;1.92;;;1.58;;
11964;SDS011;6042;41.326;19.826;2023-08-08T12:57:46;7.53;;;2.63;;
11964;SDS011;6042;41.326;19.826;2023-08-08T13:00:15;3.78;;;1.63;;
11964;SDS011;6042;41.326;19.826;2023-08-08T13:02:43;2.25;;;1.60;;
11964;SDS011;6042;41.326;19.826;2023-08-08T13:05:12;2.45;;;1.60;;
11964;SDS011;6042;41.326;19.826;2023-08-08T13:07:40;2.55;;;1.95;;
11964;SDS011;6042;41.326;19.826;2023-08-08T13:10:09;6.72;;;2.13;;
11964;SDS011;6042;41.326;19.826;2023-08-08T13:12:37;4.75;;;1.80;;
11964;SDS011;6042;41.326;19.826;2023-08-08T13:15:08;4.13;;;1.92;;
11964;SDS011;6042;41.326;19.826;2023-08-08T13:17:38;30.55;;;3.95;;
11964;SDS011;6042;41.326;19.826;2023-08-08T13:20:06;2.08;;;1.80;;
11964;SDS011;6042;41.326;19.826;2023-08-08T13:22:38;2.35;;;1.58;;
11964;SDS011;6042;41.326;19.826;2023-08-08T13:25:09;2.95;;;1.70;;
11964;SDS011;6042;41.326;19.826;2023-08-08T13:27:37;2.75;;;1.90;;
11964;SDS011;6042;41.326;19.826;2023-08-08T13:30:08;4.05;;;1.77;;
11964;SDS011;6042;41.326;19.826;2023-08-08T13:32:37;6.50;;;2.13;;
11964;SDS011;6042;41.326;19.826;2023-08-08T13:35:06;2.38;;;1.65;;
11964;SDS011;6042;41.326;19.826;2023-08-08T13:37:34;3.20;;;1.90;;
11964;SDS011;6042;41.326;19.826;2023-08-08T13:40:03;13.75;;;2.80;;
11964;SDS011;6042;41.326;19.826;2023-08-08T13:42:32;4.10;;;1.90;;
11964;SDS011;6042;41.326;19.826;2023-08-08T13:45:01;5.32;;;2.28;;
11964;SDS011;6042;41.326;19.826;2023-08-08T13:47:31;2.38;;;1.50;;
11964;SDS011;6042;41.326;19.826;2023-08-08T13:49:59;4.78;;;1.60;;
11964;SDS011;6042;41.326;19.826;2023-08-08T13:52:28;2.10;;;1.48;;
11964;SDS011;6042;41.326;19.826;2023-08-08T13:54:59;3.42;;;1.88;;
11964;SDS011;6042;41.326;19.826;2023-08-08T13:57:28;2.13;;;1.67;;
11964;SDS011;6042;41.326;19.826;2023-08-08T13:59:56;2.58;;;1.33;;
11964;SDS011;6042;41.326;19.826;2023-08-08T14:02:24;5.47;;;2.22;;
11964;SDS011;6042;41.326;19.826;2023-08-08T14:04:55;1.95;;;1.65;;
11964;SDS011;6042;41.326;19.826;2023-08-08T14:07:23;3.47;;;2.10;;
11964;SDS011;6042;41.326;19.826;2023-08-08T14:09:52;3.70;;;1.90;;
11964;SDS011;6042;41.326;19.826;2023-08-08T14:12:20;5.35;;;1.65;;
11964;SDS011;6042;41.326;19.826;2023-08-08T14:14:49;6.05;;;1.92;;
11964;SDS011;6042;41.326;19.826;2023-08-08T14:17:17;4.32;;;2.00;;
11964;SDS011;6042;41.326;19.826;2023-08-08T14:19:46;1.75;;;1.65;;
11964;SDS011;6042;41.326;19.826;2023-08-08T14:22:18;2.13;;;1.90;;
11964;SDS011;6042;41.326;19.826;2023-08-08T14:24:48;3.60;;;1.98;;
11964;SDS011;6042;41.326;19.826;2023-08-08T14:27:16;5.70;;;2.17;;
11964;SDS011;6042;41.326;19.826;2023-08-08T14:29:45;2.83;;;2.08;;
11964;SDS011;6042;41.326;19.826;2023-08-08T14:32:16;2.28;;;1.95;;
11964;SDS011;6042;41.326;19.826;2023-08-08T14:34:45;4.85;;;2.10;;
11964;SDS011;6042;41.326;19.826;2023-08-08T14:37:13;4.60;;;1.88;;
11964;SDS011;6042;41.326;19.826;2023-08-08T14:39:43;6.38;;;2.45;;
11964;SDS011;6042;41.326;19.826;2023-08-08T14:42:12;2.50;;;1.75;;
11964;SDS011;6042;41.326;19.826;2023-08-08T14:44:40;2.65;;;1.70;;
11964;SDS011;6042;41.326;19.826;2023-08-08T14:47:08;5.35;;;2.20;;
11964;SDS011;6042;41.326;19.826;2023-08-08T14:49:37;2.72;;;1.63;;
11964;SDS011;6042;41.326;19.826;2023-08-08T14:52:05;2.10;;;1.88;;
11964;SDS011;6042;41.326;19.826;2023-08-08T14:54:36;2.22;;;2.00;;
11964;SDS011;6042;41.326;19.826;2023-08-08T14:57:05;5.10;;;2.05;;
11964;SDS011;6042;41.326;19.826;2023-08-08T14:59:33;2.63;;;1.80;;